Airfield :
LOGIN :

Register | Disclaimer

   EN    FR    IT 

 










Legend :    VFR   Marginal VFR   IFR   Intensive IFR   Very Intensive IFR
Visi :
Ceiling :
>= 8 km
>= 3000ft
5 to 8 km
1000 to 3000 ft
1500m to 5 km
500 to 1000 ft
800 to 1500m
200 to 500 ft
< 800m
< 200 ft
Symbols :   Thunderstorms  Fog  Heavy snow  Heavy precipitations  Wind > 20 kt
SIGMETs :     Misc.  Thunderstorms  Icing  Turbulence  Mountain Waves  Volcanic Ashes







- Airport Elevation : 1276 ft
- IATA code : STR


EDDS - Stuttgart

CURRENT METAR :
  • 230150Z 28003KT CAVOK 16/08 Q1015

EXPIRED METARs :
  • 230120Z 27003KT CAVOK 17/07 Q1015
  • 230050Z 28002KT CAVOK 17/08 Q1015
  • 230020Z 29002KT CAVOK 17/08 Q1015
  • 222350Z 23002KT CAVOK 17/08 Q1015
  • 222320Z 17002KT CAVOK 17/08 Q1015

TAF TAF EDDS
Valid from the 23 at 00:00 until the 24 at 00:00 UTC


222300Z 2300/2324 VRB03KT CAVOK
BECMG 2307/2309 24008KT
TEMPO 2309/2318 SHRA BKN030CB
PROB30
TEMPO 2309/2317 26015G25KT 4000 TSRA BKN015CB
No reported NOTAMs for that airfield.



MET'MAP, your aeronautical weather chart ! - Copyright ORBIFLY December 2007 - Disclaimer

ORBIFLY MET'MAP TEAM :

Programming & Development : Alexandra Zaïnal
Concept & Development : Baudouin d'Aumeries
Co-Development & Prog : Marc-Olivier Méhu
Technical & hardware support : Manuel Goepfert

Contact : metmap@orbifly.com




SOURCES & CREDITS :

   NOAA